sensor_id;sensor_type;location;lat;lon;timestamp;temperature;humidity
4826;DHT22;2427;50.934;6.776;2023-09-19T00:01:23;15.80;1.00
4826;DHT22;2427;50.934;6.776;2023-09-19T00:03:49;15.70;1.00
4826;DHT22;2427;50.934;6.776;2023-09-19T00:06:15;15.70;1.00
4826;DHT22;2427;50.934;6.776;2023-09-19T00:08:41;15.70;1.00
4826;DHT22;2427;50.934;6.776;2023-09-19T00:11:09;15.60;1.00
4826;DHT22;2427;50.934;6.776;2023-09-19T00:13:36;15.70;1.00
4826;DHT22;2427;50.934;6.776;2023-09-19T00:16:08;15.60;1.00
4826;DHT22;2427;50.934;6.776;2023-09-19T00:18:36;15.60;1.00
4826;DHT22;2427;50.934;6.776;2023-09-19T00:21:03;15.60;1.00
4826;DHT22;2427;50.934;6.776;2023-09-19T00:23:30;15.60;1.00
4826;DHT22;2427;50.934;6.776;2023-09-19T00:26:00;15.50;1.00
4826;DHT22;2427;50.934;6.776;2023-09-19T00:28:26;15.50;1.00
4826;DHT22;2427;50.934;6.776;2023-09-19T00:30:52;15.50;1.00
4826;DHT22;2427;50.934;6.776;2023-09-19T00:33:19;15.50;1.00
4826;DHT22;2427;50.934;6.776;2023-09-19T00:35:49;15.50;1.00
4826;DHT22;2427;50.934;6.776;2023-09-19T00:38:15;15.50;1.00
4826;DHT22;2427;50.934;6.776;2023-09-19T00:40:47;15.50;1.00
4826;DHT22;2427;50.934;6.776;2023-09-19T00:43:13;15.50;1.00
4826;DHT22;2427;50.934;6.776;2023-09-19T00:45:43;15.50;1.00
4826;DHT22;2427;50.934;6.776;2023-09-19T00:48:09;15.50;1.00
4826;DHT22;2427;50.934;6.776;2023-09-19T00:50:35;15.50;1.00
4826;DHT22;2427;50.934;6.776;2023-09-19T00:53:02;15.50;1.00
4826;DHT22;2427;50.934;6.776;2023-09-19T00:55:38;15.60;1.00
4826;DHT22;2427;50.934;6.776;2023-09-19T00:58:04;15.60;1.00
4826;DHT22;2427;50.934;6.776;2023-09-19T01:11:06;16.00;99.90
4826;DHT22;2427;50.934;6.776;2023-09-19T01:13:58;15.90;99.90
4826;DHT22;2427;50.934;6.776;2023-09-19T01:16:45;15.90;99.90
4826;DHT22;2427;50.934;6.776;2023-09-19T01:25:13;15.80;99.90
4826;DHT22;2427;50.934;6.776;2023-09-19T01:30:22;15.90;1.00
4826;DHT22;2427;50.934;6.776;2023-09-19T01:32:53;15.90;46.90
4826;DHT22;2427;50.934;6.776;2023-09-19T01:35:19;15.90;1.00
4826;DHT22;2427;50.934;6.776;2023-09-19T01:37:45;15.80;1.00
4826;DHT22;2427;50.934;6.776;2023-09-19T01:40:19;15.90;1.00
4826;DHT22;2427;50.934;6.776;2023-09-19T01:45:59;15.80;1.00
4826;DHT22;2427;50.934;6.776;2023-09-19T01:48:38;15.90;99.90
4826;DHT22;2427;50.934;6.776;2023-09-19T01:51:10;15.90;99.90
4826;DHT22;2427;50.934;6.776;2023-09-19T01:53:56;15.90;99.90
4826;DHT22;2427;50.934;6.776;2023-09-19T01:56:34;15.90;94.70
4826;DHT22;2427;50.934;6.776;2023-09-19T01:59:08;15.90;1.00
4826;DHT22;2427;50.934;6.776;2023-09-19T02:01:37;15.80;11.00
4826;DHT22;2427;50.934;6.776;2023-09-19T02:04:03;15.80;67.30
4826;DHT22;2427;50.934;6.776;2023-09-19T02:06:29;15.80;5.60
4826;DHT22;2427;50.934;6.776;2023-09-19T02:08:55;15.80;1.00
4826;DHT22;2427;50.934;6.776;2023-09-19T02:11:21;15.80;99.90
4826;DHT22;2427;50.934;6.776;2023-09-19T02:13:46;15.80;99.90
4826;DHT22;2427;50.934;6.776;2023-09-19T02:16:12;15.80;99.90
4826;DHT22;2427;50.934;6.776;2023-09-19T02:18:38;15.80;99.90
4826;DHT22;2427;50.934;6.776;2023-09-19T02:21:04;15.70;99.90
4826;DHT22;2427;50.934;6.776;2023-09-19T02:23:32;15.70;99.90
4826;DHT22;2427;50.934;6.776;2023-09-19T02:25:58;15.60;99.90
4826;DHT22;2427;50.934;6.776;2023-09-19T02:28:26;15.60;99.90
4826;DHT22;2427;50.934;6.776;2023-09-19T02:30:56;15.60;99.90
4826;DHT22;2427;50.934;6.776;2023-09-19T02:33:22;15.60;99.90
4826;DHT22;2427;50.934;6.776;2023-09-19T02:35:47;15.50;99.90
4826;DHT22;2427;50.934;6.776;2023-09-19T02:38:14;15.50;99.90
4826;DHT22;2427;50.934;6.776;2023-09-19T02:40:43;15.50;99.90
4826;DHT22;2427;50.934;6.776;2023-09-19T02:43:09;15.40;99.90
4826;DHT22;2427;50.934;6.776;2023-09-19T02:45:35;15.40;99.90
4826;DHT22;2427;50.934;6.776;2023-09-19T02:48:00;15.40;99.90
4826;DHT22;2427;50.934;6.776;2023-09-19T02:50:27;15.30;99.90
4826;DHT22;2427;50.934;6.776;2023-09-19T02:52:53;15.30;99.90
4826;DHT22;2427;50.934;6.776;2023-09-19T02:55:20;15.30;99.90
4826;DHT22;2427;50.934;6.776;2023-09-19T02:57:51;15.20;99.90
4826;DHT22;2427;50.934;6.776;2023-09-19T03:00:18;15.20;99.90
4826;DHT22;2427;50.934;6.776;2023-09-19T03:02:50;15.10;99.90
4826;DHT22;2427;50.934;6.776;2023-09-19T03:05:17;15.10;99.90
4826;DHT22;2427;50.934;6.776;2023-09-19T03:07:43;15.10;99.90
4826;DHT22;2427;50.934;6.776;2023-09-19T03:10:11;15.10;99.90
4826;DHT22;2427;50.934;6.776;2023-09-19T03:12:36;15.00;99.90
4826;DHT22;2427;50.934;6.776;2023-09-19T03:15:03;15.00;99.90
4826;DHT22;2427;50.934;6.776;2023-09-19T03:17:30;14.90;1.00
4826;DHT22;2427;50.934;6.776;2023-09-19T03:19:55;14.90;1.00
4826;DHT22;2427;50.934;6.776;2023-09-19T03:22:22;14.90;1.00
4826;DHT22;2427;50.934;6.776;2023-09-19T03:24:48;14.80;1.00
4826;DHT22;2427;50.934;6.776;2023-09-19T03:27:13;14.80;1.00
4826;DHT22;2427;50.934;6.776;2023-09-19T03:29:39;14.80;1.00
4826;DHT22;2427;50.934;6.776;2023-09-19T03:32:05;14.80;1.00
4826;DHT22;2427;50.934;6.776;2023-09-19T03:34:31;14.70;1.00
4826;DHT22;2427;50.934;6.776;2023-09-19T03:36:57;14.70;99.90
4826;DHT22;2427;50.934;6.776;2023-09-19T03:39:22;14.70;99.90
4826;DHT22;2427;50.934;6.776;2023-09-19T03:41:48;14.70;99.90
4826;DHT22;2427;50.934;6.776;2023-09-19T03:44:15;14.70;99.90
4826;DHT22;2427;50.934;6.776;2023-09-19T03:46:40;14.70;99.90
4826;DHT22;2427;50.934;6.776;2023-09-19T03:49:06;14.70;99.90
4826;DHT22;2427;50.934;6.776;2023-09-19T03:51:31;14.70;99.90
4826;DHT22;2427;50.934;6.776;2023-09-19T03:53:59;14.70;99.90
4826;DHT22;2427;50.934;6.776;2023-09-19T03:56:25;14.60;99.90
4826;DHT22;2427;50.934;6.776;2023-09-19T03:58:51;14.60;99.90
4826;DHT22;2427;50.934;6.776;2023-09-19T04:01:16;14.60;99.90
4826;DHT22;2427;50.934;6.776;2023-09-19T04:03:43;14.60;99.90
4826;DHT22;2427;50.934;6.776;2023-09-19T04:06:16;14.60;99.90
4826;DHT22;2427;50.934;6.776;2023-09-19T04:08:42;14.60;99.90
4826;DHT22;2427;50.934;6.776;2023-09-19T04:11:08;14.50;99.90
4826;DHT22;2427;50.934;6.776;2023-09-19T04:13:34;14.60;99.90
4826;DHT22;2427;50.934;6.776;2023-09-19T04:15:59;14.60;99.90
4826;DHT22;2427;50.934;6.776;2023-09-19T04:18:25;14.50;99.90
4826;DHT22;2427;50.934;6.776;2023-09-19T04:20:51;14.50;99.90
4826;DHT22;2427;50.934;6.776;2023-09-19T04:23:18;14.50;99.90
4826;DHT22;2427;50.934;6.776;2023-09-19T04:25:45;14.50;99.90
4826;DHT22;2427;50.934;6.776;2023-09-19T04:28:11;14.50;92.70
4826;DHT22;2427;50.934;6.776;2023-09-19T04:30:39;14.50;99.90
4826;DHT22;2427;50.934;6.776;2023-09-19T04:33:08;14.40;99.90
4826;DHT22;2427;50.934;6.776;2023-09-19T04:35:34;14.40;99.90
4826;DHT22;2427;50.934;6.776;2023-09-19T04:38:00;14.40;99.90
4826;DHT22;2427;50.934;6.776;2023-09-19T04:40:26;14.40;90.20
4826;DHT22;2427;50.934;6.776;2023-09-19T04:42:55;14.40;99.90
4826;DHT22;2427;50.934;6.776;2023-09-19T04:45:28;14.40;99.90
4826;DHT22;2427;50.934;6.776;2023-09-19T04:47:54;14.40;99.90
4826;DHT22;2427;50.934;6.776;2023-09-19T04:50:20;14.40;99.90
4826;DHT22;2427;50.934;6.776;2023-09-19T04:52:49;14.40;87.70
4826;DHT22;2427;50.934;6.776;2023-09-19T04:55:19;14.30;99.90
4826;DHT22;2427;50.934;6.776;2023-09-19T04:57:46;14.30;99.90
4826;DHT22;2427;50.934;6.776;2023-09-19T05:00:14;14.30;99.90
4826;DHT22;2427;50.934;6.776;2023-09-19T05:02:40;14.30;94.10
4826;DHT22;2427;50.934;6.776;2023-09-19T05:05:10;14.30;97.60
4826;DHT22;2427;50.934;6.776;2023-09-19T05:07:36;14.30;99.80
4826;DHT22;2427;50.934;6.776;2023-09-19T05:10:03;14.30;14.30
4826;DHT22;2427;50.934;6.776;2023-09-19T05:12:33;14.30;1.20
4826;DHT22;2427;50.934;6.776;2023-09-19T05:14:59;14.40;24.10
4826;DHT22;2427;50.934;6.776;2023-09-19T05:17:25;14.40;1.00
4826;DHT22;2427;50.934;6.776;2023-09-19T05:19:51;14.30;1.00
4826;DHT22;2427;50.934;6.776;2023-09-19T05:22:16;14.30;1.00
4826;DHT22;2427;50.934;6.776;2023-09-19T05:24:44;14.30;1.00
4826;DHT22;2427;50.934;6.776;2023-09-19T05:27:12;14.30;10.80
4826;DHT22;2427;50.934;6.776;2023-09-19T05:29:38;14.30;1.00
4826;DHT22;2427;50.934;6.776;2023-09-19T05:32:04;14.30;1.00
4826;DHT22;2427;50.934;6.776;2023-09-19T05:34:31;14.30;1.00
4826;DHT22;2427;50.934;6.776;2023-09-19T05:36:56;14.30;1.00
4826;DHT22;2427;50.934;6.776;2023-09-19T05:39:22;14.30;1.00
4826;DHT22;2427;50.934;6.776;2023-09-19T05:41:48;14.40;1.00
4826;DHT22;2427;50.934;6.776;2023-09-19T05:44:13;14.40;1.00
4826;DHT22;2427;50.934;6.776;2023-09-19T05:46:42;14.40;1.00
4826;DHT22;2427;50.934;6.776;2023-09-19T05:49:07;14.40;1.00
4826;DHT22;2427;50.934;6.776;2023-09-19T05:51:33;14.40;1.00
4826;DHT22;2427;50.934;6.776;2023-09-19T05:54:00;14.40;1.00
4826;DHT22;2427;50.934;6.776;2023-09-19T05:56:26;14.40;1.00
4826;DHT22;2427;50.934;6.776;2023-09-19T05:58:52;14.40;1.00
4826;DHT22;2427;50.934;6.776;2023-09-19T06:01:19;14.40;1.00
4826;DHT22;2427;50.934;6.776;2023-09-19T06:03:44;14.50;1.00
4826;DHT22;2427;50.934;6.776;2023-09-19T06:06:10;14.50;1.00
4826;DHT22;2427;50.934;6.776;2023-09-19T06:08:35;14.50;1.00
4826;DHT22;2427;50.934;6.776;2023-09-19T06:11:01;14.50;1.00
4826;DHT22;2427;50.934;6.776;2023-09-19T06:13:30;14.50;1.00
4826;DHT22;2427;50.934;6.776;2023-09-19T06:15:59;14.50;1.00
4826;DHT22;2427;50.934;6.776;2023-09-19T06:18:28;14.50;1.00
4826;DHT22;2427;50.934;6.776;2023-09-19T06:20:55;14.50;1.00
4826;DHT22;2427;50.934;6.776;2023-09-19T06:23:21;14.50;1.00
4826;DHT22;2427;50.934;6.776;2023-09-19T06:25:47;14.60;1.00
4826;DHT22;2427;50.934;6.776;2023-09-19T06:28:12;14.60;1.00
4826;DHT22;2427;50.934;6.776;2023-09-19T06:30:38;14.60;1.00
4826;DHT22;2427;50.934;6.776;2023-09-19T06:33:07;14.60;1.00
4826;DHT22;2427;50.934;6.776;2023-09-19T06:35:34;14.60;1.00
4826;DHT22;2427;50.934;6.776;2023-09-19T06:38:02;14.70;1.00
4826;DHT22;2427;50.934;6.776;2023-09-19T06:40:29;14.70;1.00
4826;DHT22;2427;50.934;6.776;2023-09-19T06:42:56;14.70;1.00
4826;DHT22;2427;50.934;6.776;2023-09-19T06:45:22;14.80;1.00
4826;DHT22;2427;50.934;6.776;2023-09-19T06:47:51;14.90;1.00
4826;DHT22;2427;50.934;6.776;2023-09-19T06:50:17;14.90;1.00
4826;DHT22;2427;50.934;6.776;2023-09-19T06:52:46;15.00;1.00
4826;DHT22;2427;50.934;6.776;2023-09-19T06:55:19;15.00;1.00
4826;DHT22;2427;50.934;6.776;2023-09-19T06:57:46;15.00;1.00
4826;DHT22;2427;50.934;6.776;2023-09-19T07:00:13;15.10;1.00
4826;DHT22;2427;50.934;6.776;2023-09-19T07:03:02;15.10;1.00
4826;DHT22;2427;50.934;6.776;2023-09-19T07:05:33;15.20;1.00
4826;DHT22;2427;50.934;6.776;2023-09-19T07:08:02;15.20;1.00
4826;DHT22;2427;50.934;6.776;2023-09-19T07:10:28;15.20;1.00
4826;DHT22;2427;50.934;6.776;2023-09-19T07:13:01;15.20;1.00
4826;DHT22;2427;50.934;6.776;2023-09-19T07:15:27;15.30;1.00
4826;DHT22;2427;50.934;6.776;2023-09-19T07:17:54;15.30;1.00
4826;DHT22;2427;50.934;6.776;2023-09-19T07:20:22;15.40;1.00
4826;DHT22;2427;50.934;6.776;2023-09-19T07:22:49;15.40;1.00
4826;DHT22;2427;50.934;6.776;2023-09-19T07:25:16;15.50;1.00
4826;DHT22;2427;50.934;6.776;2023-09-19T07:27:42;15.50;1.00
4826;DHT22;2427;50.934;6.776;2023-09-19T07:30:09;15.60;1.00
4826;DHT22;2427;50.934;6.776;2023-09-19T07:32:34;15.60;1.00
4826;DHT22;2427;50.934;6.776;2023-09-19T07:35:04;15.70;1.00
4826;DHT22;2427;50.934;6.776;2023-09-19T07:37:31;15.70;1.00
4826;DHT22;2427;50.934;6.776;2023-09-19T07:40:02;15.80;1.00
4826;DHT22;2427;50.934;6.776;2023-09-19T07:42:33;15.80;1.00
4826;DHT22;2427;50.934;6.776;2023-09-19T07:45:01;15.80;1.00
4826;DHT22;2427;50.934;6.776;2023-09-19T07:47:26;15.90;1.00
4826;DHT22;2427;50.934;6.776;2023-09-19T07:49:53;16.00;1.00
4826;DHT22;2427;50.934;6.776;2023-09-19T07:52:18;16.20;1.00
4826;DHT22;2427;50.934;6.776;2023-09-19T07:54:44;16.30;1.00
4826;DHT22;2427;50.934;6.776;2023-09-19T07:57:10;16.30;1.00
4826;DHT22;2427;50.934;6.776;2023-09-19T07:59:37;16.30;1.00
4826;DHT22;2427;50.934;6.776;2023-09-19T08:02:04;16.40;1.00
4826;DHT22;2427;50.934;6.776;2023-09-19T08:04:30;16.40;1.00
4826;DHT22;2427;50.934;6.776;2023-09-19T08:06:58;16.60;1.00
4826;DHT22;2427;50.934;6.776;2023-09-19T08:09:24;16.60;1.00
4826;DHT22;2427;50.934;6.776;2023-09-19T08:11:50;16.70;1.00
4826;DHT22;2427;50.934;6.776;2023-09-19T08:14:16;16.80;1.00
4826;DHT22;2427;50.934;6.776;2023-09-19T08:16:41;16.70;1.00
4826;DHT22;2427;50.934;6.776;2023-09-19T08:19:09;16.70;1.00
4826;DHT22;2427;50.934;6.776;2023-09-19T08:21:35;16.80;1.00
4826;DHT22;2427;50.934;6.776;2023-09-19T08:24:02;16.80;1.00
4826;DHT22;2427;50.934;6.776;2023-09-19T08:26:29;17.00;1.00
4826;DHT22;2427;50.934;6.776;2023-09-19T08:28:56;17.00;1.00
4826;DHT22;2427;50.934;6.776;2023-09-19T08:31:22;17.00;1.00
4826;DHT22;2427;50.934;6.776;2023-09-19T08:33:49;17.10;1.00
4826;DHT22;2427;50.934;6.776;2023-09-19T08:36:17;17.30;1.00
4826;DHT22;2427;50.934;6.776;2023-09-19T08:38:42;17.30;1.00
4826;DHT22;2427;50.934;6.776;2023-09-19T08:41:08;17.30;1.00
4826;DHT22;2427;50.934;6.776;2023-09-19T08:43:34;17.20;1.00
4826;DHT22;2427;50.934;6.776;2023-09-19T08:46:11;17.30;1.00
4826;DHT22;2427;50.934;6.776;2023-09-19T08:49:03;17.10;99.90
4826;DHT22;2427;50.934;6.776;2023-09-19T08:51:43;17.20;99.90
4826;DHT22;2427;50.934;6.776;2023-09-19T08:54:35;17.30;99.90
4826;DHT22;2427;50.934;6.776;2023-09-19T08:57:07;17.50;99.90
4826;DHT22;2427;50.934;6.776;2023-09-19T08:59:39;17.50;99.90
4826;DHT22;2427;50.934;6.776;2023-09-19T09:02:12;17.60;99.90
4826;DHT22;2427;50.934;6.776;2023-09-19T09:04:41;17.60;99.90
4826;DHT22;2427;50.934;6.776;2023-09-19T09:07:12;17.70;99.90
4826;DHT22;2427;50.934;6.776;2023-09-19T09:09:42;17.70;99.90
4826;DHT22;2427;50.934;6.776;2023-09-19T09:12:11;17.70;99.90
4826;DHT22;2427;50.934;6.776;2023-09-19T09:14:46;17.80;99.90
4826;DHT22;2427;50.934;6.776;2023-09-19T09:17:14;17.90;99.90
4826;DHT22;2427;50.934;6.776;2023-09-19T09:19:39;18.00;99.90
4826;DHT22;2427;50.934;6.776;2023-09-19T09:22:10;18.00;99.90
4826;DHT22;2427;50.934;6.776;2023-09-19T09:24:37;18.00;99.90
4826;DHT22;2427;50.934;6.776;2023-09-19T09:27:05;18.10;99.90
4826;DHT22;2427;50.934;6.776;2023-09-19T09:29:47;18.30;99.90
4826;DHT22;2427;50.934;6.776;2023-09-19T09:32:31;18.40;99.90
4826;DHT22;2427;50.934;6.776;2023-09-19T09:35:03;18.60;99.90
4826;DHT22;2427;50.934;6.776;2023-09-19T09:37:35;18.70;99.90
4826;DHT22;2427;50.934;6.776;2023-09-19T09:40:04;18.70;99.90
4826;DHT22;2427;50.934;6.776;2023-09-19T09:42:39;18.60;99.90
4826;DHT22;2427;50.934;6.776;2023-09-19T09:45:20;18.50;99.90
4826;DHT22;2427;50.934;6.776;2023-09-19T09:48:01;18.60;99.90
4826;DHT22;2427;50.934;6.776;2023-09-19T09:50:46;18.70;99.90
4826;DHT22;2427;50.934;6.776;2023-09-19T09:53:30;18.70;99.90
4826;DHT22;2427;50.934;6.776;2023-09-19T09:56:08;18.70;99.90
4826;DHT22;2427;50.934;6.776;2023-09-19T10:01:14;18.90;99.90
4826;DHT22;2427;50.934;6.776;2023-09-19T10:03:42;18.80;99.90
4826;DHT22;2427;50.934;6.776;2023-09-19T10:06:15;18.90;99.90
4826;DHT22;2427;50.934;6.776;2023-09-19T10:09:09;19.00;99.90
4826;DHT22;2427;50.934;6.776;2023-09-19T10:11:56;19.00;99.90
4826;DHT22;2427;50.934;6.776;2023-09-19T10:14:30;19.00;99.90
4826;DHT22;2427;50.934;6.776;2023-09-19T10:16:58;19.10;99.90
4826;DHT22;2427;50.934;6.776;2023-09-19T10:19:58;19.30;99.90
4826;DHT22;2427;50.934;6.776;2023-09-19T10:22:26;19.40;99.90
4826;DHT22;2427;50.934;6.776;2023-09-19T10:24:53;19.60;99.90
4826;DHT22;2427;50.934;6.776;2023-09-19T10:27:20;19.60;99.90
4826;DHT22;2427;50.934;6.776;2023-09-19T10:29:49;19.70;99.90
4826;DHT22;2427;50.934;6.776;2023-09-19T10:32:19;19.90;99.90
4826;DHT22;2427;50.934;6.776;2023-09-19T10:34:49;20.10;99.90
4826;DHT22;2427;50.934;6.776;2023-09-19T10:37:16;20.00;99.90
4826;DHT22;2427;50.934;6.776;2023-09-19T10:39:46;20.00;99.90
4826;DHT22;2427;50.934;6.776;2023-09-19T10:42:16;20.10;99.90
4826;DHT22;2427;50.934;6.776;2023-09-19T10:44:45;19.90;99.90
4826;DHT22;2427;50.934;6.776;2023-09-19T10:47:13;19.90;99.90
4826;DHT22;2427;50.934;6.776;2023-09-19T10:49:46;20.30;99.90
4826;DHT22;2427;50.934;6.776;2023-09-19T10:52:17;20.50;99.90
4826;DHT22;2427;50.934;6.776;2023-09-19T10:54:47;20.70;99.90
4826;DHT22;2427;50.934;6.776;2023-09-19T10:57:21;20.90;99.90
4826;DHT22;2427;50.934;6.776;2023-09-19T11:00:06;20.70;99.90
4826;DHT22;2427;50.934;6.776;2023-09-19T11:03:20;20.90;99.90
4826;DHT22;2427;50.934;6.776;2023-09-19T11:11:41;20.90;99.90
4826;DHT22;2427;50.934;6.776;2023-09-19T11:28:28;21.50;99.90
4826;DHT22;2427;50.934;6.776;2023-09-19T11:30:54;21.50;99.90
4826;DHT22;2427;50.934;6.776;2023-09-19T11:33:32;21.60;99.90
4826;DHT22;2427;50.934;6.776;2023-09-19T11:36:14;21.50;99.90
4826;DHT22;2427;50.934;6.776;2023-09-19T11:49:18;21.50;99.90
4826;DHT22;2427;50.934;6.776;2023-09-19T11:51:50;21.50;99.90
4826;DHT22;2427;50.934;6.776;2023-09-19T11:54:19;21.70;99.90
4826;DHT22;2427;50.934;6.776;2023-09-19T11:56:49;22.00;99.90
4826;DHT22;2427;50.934;6.776;2023-09-19T11:59:28;21.80;99.90
4826;DHT22;2427;50.934;6.776;2023-09-19T12:02:05;21.90;99.90
4826;DHT22;2427;50.934;6.776;2023-09-19T12:04:39;22.20;99.90
4826;DHT22;2427;50.934;6.776;2023-09-19T12:07:13;21.80;99.90
4826;DHT22;2427;50.934;6.776;2023-09-19T12:09:48;22.00;99.90
4826;DHT22;2427;50.934;6.776;2023-09-19T12:12:26;21.90;99.90
4826;DHT22;2427;50.934;6.776;2023-09-19T12:14:53;22.30;99.90
4826;DHT22;2427;50.934;6.776;2023-09-19T12:17:20;22.30;99.90
4826;DHT22;2427;50.934;6.776;2023-09-19T12:19:53;22.30;99.90
4826;DHT22;2427;50.934;6.776;2023-09-19T12:22:19;22.20;99.90
4826;DHT22;2427;50.934;6.776;2023-09-19T12:24:46;22.40;99.90
4826;DHT22;2427;50.934;6.776;2023-09-19T12:27:12;22.30;99.90
4826;DHT22;2427;50.934;6.776;2023-09-19T12:29:48;22.10;99.90
4826;DHT22;2427;50.934;6.776;2023-09-19T12:32:15;22.20;99.90
4826;DHT22;2427;50.934;6.776;2023-09-19T12:34:51;22.60;99.90
4826;DHT22;2427;50.934;6.776;2023-09-19T12:37:18;22.80;99.90
4826;DHT22;2427;50.934;6.776;2023-09-19T12:39:49;22.90;99.90
4826;DHT22;2427;50.934;6.776;2023-09-19T12:42:17;23.20;99.90
4826;DHT22;2427;50.934;6.776;2023-09-19T12:44:46;23.50;99.90
4826;DHT22;2427;50.934;6.776;2023-09-19T12:47:17;24.00;99.90
4826;DHT22;2427;50.934;6.776;2023-09-19T12:50:07;25.30;99.90
4826;DHT22;2427;50.934;6.776;2023-09-19T12:52:48;25.50;99.90
4826;DHT22;2427;50.934;6.776;2023-09-19T12:55:30;26.60;99.90
4826;DHT22;2427;50.934;6.776;2023-09-19T12:58:14;26.30;99.90
4826;DHT22;2427;50.934;6.776;2023-09-19T13:00:44;25.80;99.90
4826;DHT22;2427;50.934;6.776;2023-09-19T13:05:55;27.70;99.90
4826;DHT22;2427;50.934;6.776;2023-09-19T13:08:27;27.90;99.90
4826;DHT22;2427;50.934;6.776;2023-09-19T13:13:33;27.30;99.90
4826;DHT22;2427;50.934;6.776;2023-09-19T13:16:01;28.30;99.90
4826;DHT22;2427;50.934;6.776;2023-09-19T13:18:27;28.90;99.90
4826;DHT22;2427;50.934;6.776;2023-09-19T13:21:11;27.10;99.90
4826;DHT22;2427;50.934;6.776;2023-09-19T13:23:42;25.60;99.90
4826;DHT22;2427;50.934;6.776;2023-09-19T13:26:09;25.30;99.90
4826;DHT22;2427;50.934;6.776;2023-09-19T13:28:37;25.30;99.90
4826;DHT22;2427;50.934;6.776;2023-09-19T13:31:02;26.20;99.90
4826;DHT22;2427;50.934;6.776;2023-09-19T13:33:28;25.80;99.90
4826;DHT22;2427;50.934;6.776;2023-09-19T13:35:54;25.30;99.90
4826;DHT22;2427;50.934;6.776;2023-09-19T13:38:20;25.10;99.90
4826;DHT22;2427;50.934;6.776;2023-09-19T13:40:47;25.90;99.90
4826;DHT22;2427;50.934;6.776;2023-09-19T13:43:13;26.00;99.90
4826;DHT22;2427;50.934;6.776;2023-09-19T13:45:38;25.10;99.90
4826;DHT22;2427;50.934;6.776;2023-09-19T13:48:07;25.10;99.90
4826;DHT22;2427;50.934;6.776;2023-09-19T13:50:34;25.40;99.90
4826;DHT22;2427;50.934;6.776;2023-09-19T13:53:01;25.90;99.90
4826;DHT22;2427;50.934;6.776;2023-09-19T13:55:28;24.50;99.90
4826;DHT22;2427;50.934;6.776;2023-09-19T13:57:53;23.80;99.90
4826;DHT22;2427;50.934;6.776;2023-09-19T14:00:24;23.30;99.90
4826;DHT22;2427;50.934;6.776;2023-09-19T14:02:50;22.70;99.90
4826;DHT22;2427;50.934;6.776;2023-09-19T14:05:16;22.10;99.90
4826;DHT22;2427;50.934;6.776;2023-09-19T14:07:45;22.00;99.90
4826;DHT22;2427;50.934;6.776;2023-09-19T14:10:11;21.60;99.90
4826;DHT22;2427;50.934;6.776;2023-09-19T14:12:39;21.40;99.90
4826;DHT22;2427;50.934;6.776;2023-09-19T14:15:09;21.20;99.90
4826;DHT22;2427;50.934;6.776;2023-09-19T14:17:35;21.20;99.90
4826;DHT22;2427;50.934;6.776;2023-09-19T14:20:01;21.10;99.90
4826;DHT22;2427;50.934;6.776;2023-09-19T14:22:26;21.00;99.90
4826;DHT22;2427;50.934;6.776;2023-09-19T14:24:52;20.80;99.90
4826;DHT22;2427;50.934;6.776;2023-09-19T14:27:18;20.80;99.90
4826;DHT22;2427;50.934;6.776;2023-09-19T14:29:44;20.80;99.90
4826;DHT22;2427;50.934;6.776;2023-09-19T14:32:09;20.60;99.90
4826;DHT22;2427;50.934;6.776;2023-09-19T14:34:35;20.50;99.90
4826;DHT22;2427;50.934;6.776;2023-09-19T14:37:07;20.60;99.90
4826;DHT22;2427;50.934;6.776;2023-09-19T14:39:33;20.70;99.90
4826;DHT22;2427;50.934;6.776;2023-09-19T14:41:58;21.60;99.90
4826;DHT22;2427;50.934;6.776;2023-09-19T14:44:24;23.30;99.90
4826;DHT22;2427;50.934;6.776;2023-09-19T14:46:50;24.90;99.90
4826;DHT22;2427;50.934;6.776;2023-09-19T14:49:16;24.40;99.90
4826;DHT22;2427;50.934;6.776;2023-09-19T14:51:42;24.50;99.90
4826;DHT22;2427;50.934;6.776;2023-09-19T14:54:09;25.50;99.90
4826;DHT22;2427;50.934;6.776;2023-09-19T14:56:35;25.30;99.90
4826;DHT22;2427;50.934;6.776;2023-09-19T14:59:01;24.50;99.90
4826;DHT22;2427;50.934;6.776;2023-09-19T15:01:27;23.50;99.90
4826;DHT22;2427;50.934;6.776;2023-09-19T15:03:53;22.60;99.90
4826;DHT22;2427;50.934;6.776;2023-09-19T15:06:20;22.00;99.90
4826;DHT22;2427;50.934;6.776;2023-09-19T15:08:46;21.90;99.90
4826;DHT22;2427;50.934;6.776;2023-09-19T15:11:16;21.60;99.90
4826;DHT22;2427;50.934;6.776;2023-09-19T15:13:43;21.30;99.90
4826;DHT22;2427;50.934;6.776;2023-09-19T15:16:10;21.00;99.90
4826;DHT22;2427;50.934;6.776;2023-09-19T15:18:36;20.80;99.90
4826;DHT22;2427;50.934;6.776;2023-09-19T15:21:10;20.70;99.90
4826;DHT22;2427;50.934;6.776;2023-09-19T15:23:37;20.60;99.90
4826;DHT22;2427;50.934;6.776;2023-09-19T15:26:07;20.70;99.90
4826;DHT22;2427;50.934;6.776;2023-09-19T15:28:42;20.60;99.90
4826;DHT22;2427;50.934;6.776;2023-09-19T15:31:12;20.60;99.90
4826;DHT22;2427;50.934;6.776;2023-09-19T15:33:38;20.60;99.90
4826;DHT22;2427;50.934;6.776;2023-09-19T15:36:08;20.50;99.90
4826;DHT22;2427;50.934;6.776;2023-09-19T15:41:30;20.50;99.90
4826;DHT22;2427;50.934;6.776;2023-09-19T15:43:57;20.40;99.90
4826;DHT22;2427;50.934;6.776;2023-09-19T15:46:24;20.50;99.90
4826;DHT22;2427;50.934;6.776;2023-09-19T15:48:52;20.50;99.90
4826;DHT22;2427;50.934;6.776;2023-09-19T15:51:18;20.50;99.90
4826;DHT22;2427;50.934;6.776;2023-09-19T15:53:47;20.40;99.90
4826;DHT22;2427;50.934;6.776;2023-09-19T15:56:14;20.40;99.90
4826;DHT22;2427;50.934;6.776;2023-09-19T15:58:42;20.40;99.90
4826;DHT22;2427;50.934;6.776;2023-09-19T16:01:09;20.50;99.90
4826;DHT22;2427;50.934;6.776;2023-09-19T16:03:38;20.60;99.90
4826;DHT22;2427;50.934;6.776;2023-09-19T16:06:11;20.80;99.90
4826;DHT22;2427;50.934;6.776;2023-09-19T16:08:45;20.70;99.90
4826;DHT22;2427;50.934;6.776;2023-09-19T16:11:11;20.60;99.90
4826;DHT22;2427;50.934;6.776;2023-09-19T16:13:38;20.50;99.90
4826;DHT22;2427;50.934;6.776;2023-09-19T16:16:04;20.30;99.90
4826;DHT22;2427;50.934;6.776;2023-09-19T16:18:30;20.30;99.90
4826;DHT22;2427;50.934;6.776;2023-09-19T16:21:05;20.30;99.90
4826;DHT22;2427;50.934;6.776;2023-09-19T16:23:30;20.20;99.90
4826;DHT22;2427;50.934;6.776;2023-09-19T16:26:08;20.00;99.90
4826;DHT22;2427;50.934;6.776;2023-09-19T16:28:39;20.00;99.90
4826;DHT22;2427;50.934;6.776;2023-09-19T16:31:06;20.00;99.90
4826;DHT22;2427;50.934;6.776;2023-09-19T16:33:35;20.10;99.90
4826;DHT22;2427;50.934;6.776;2023-09-19T16:36:02;20.00;99.90
4826;DHT22;2427;50.934;6.776;2023-09-19T16:38:28;19.90;99.90
4826;DHT22;2427;50.934;6.776;2023-09-19T16:40:58;19.90;99.90
4826;DHT22;2427;50.934;6.776;2023-09-19T16:43:25;19.80;99.90
4826;DHT22;2427;50.934;6.776;2023-09-19T16:45:55;19.80;99.90
4826;DHT22;2427;50.934;6.776;2023-09-19T16:48:22;19.80;99.90
4826;DHT22;2427;50.934;6.776;2023-09-19T16:50:52;19.70;99.90
4826;DHT22;2427;50.934;6.776;2023-09-19T16:53:18;19.60;99.90
4826;DHT22;2427;50.934;6.776;2023-09-19T16:55:45;19.50;99.90
4826;DHT22;2427;50.934;6.776;2023-09-19T16:58:12;19.50;99.90
4826;DHT22;2427;50.934;6.776;2023-09-19T17:00:37;19.40;99.90
4826;DHT22;2427;50.934;6.776;2023-09-19T17:03:04;19.30;99.90
4826;DHT22;2427;50.934;6.776;2023-09-19T17:05:30;19.30;99.90
4826;DHT22;2427;50.934;6.776;2023-09-19T17:07:56;19.30;99.90
4826;DHT22;2427;50.934;6.776;2023-09-19T17:10:22;19.20;99.90
4826;DHT22;2427;50.934;6.776;2023-09-19T17:12:47;19.20;99.90
4826;DHT22;2427;50.934;6.776;2023-09-19T17:15:13;19.10;99.90
4826;DHT22;2427;50.934;6.776;2023-09-19T17:17:38;19.10;99.90
4826;DHT22;2427;50.934;6.776;2023-09-19T17:20:06;19.00;99.90
4826;DHT22;2427;50.934;6.776;2023-09-19T17:22:32;19.00;99.90